sensor_id;sensor_type;location;lat;lon;timestamp;temperature;humidity
1806;DHT22;901;48.142;11.516;2023-07-29T00:00:44;16.90;99.90
1806;DHT22;901;48.142;11.516;2023-07-29T00:03:11;16.90;99.90
1806;DHT22;901;48.142;11.516;2023-07-29T00:05:38;16.90;99.90
1806;DHT22;901;48.142;11.516;2023-07-29T00:08:06;16.90;99.90
1806;DHT22;901;48.142;11.516;2023-07-29T00:10:35;16.80;99.90
1806;DHT22;901;48.142;11.516;2023-07-29T00:13:04;16.80;99.90
1806;DHT22;901;48.142;11.516;2023-07-29T00:15:31;16.90;99.90
1806;DHT22;901;48.142;11.516;2023-07-29T00:17:58;16.80;99.90
1806;DHT22;901;48.142;11.516;2023-07-29T00:20:25;16.80;99.90
1806;DHT22;901;48.142;11.516;2023-07-29T00:22:52;16.80;99.90
1806;DHT22;901;48.142;11.516;2023-07-29T00:25:20;16.80;99.90
1806;DHT22;901;48.142;11.516;2023-07-29T00:27:47;16.80;99.90
1806;DHT22;901;48.142;11.516;2023-07-29T00:30:15;16.80;99.90
1806;DHT22;901;48.142;11.516;2023-07-29T00:32:42;16.80;99.90
1806;DHT22;901;48.142;11.516;2023-07-29T00:35:09;16.80;99.90
1806;DHT22;901;48.142;11.516;2023-07-29T00:37:36;16.80;99.90
1806;DHT22;901;48.142;11.516;2023-07-29T00:40:06;16.90;99.90
1806;DHT22;901;48.142;11.516;2023-07-29T00:42:36;16.90;99.90
1806;DHT22;901;48.142;11.516;2023-07-29T00:45:03;16.90;99.90
1806;DHT22;901;48.142;11.516;2023-07-29T00:47:33;16.90;99.90
1806;DHT22;901;48.142;11.516;2023-07-29T00:50:00;17.00;99.90
1806;DHT22;901;48.142;11.516;2023-07-29T00:52:27;17.00;99.90
1806;DHT22;901;48.142;11.516;2023-07-29T00:54:53;17.10;99.90
1806;DHT22;901;48.142;11.516;2023-07-29T00:57:20;17.10;99.90
1806;DHT22;901;48.142;11.516;2023-07-29T00:59:48;17.10;99.90
1806;DHT22;901;48.142;11.516;2023-07-29T01:02:15;17.20;99.90
1806;DHT22;901;48.142;11.516;2023-07-29T01:04:44;17.20;99.90
1806;DHT22;901;48.142;11.516;2023-07-29T01:07:17;17.10;99.90
1806;DHT22;901;48.142;11.516;2023-07-29T01:09:54;17.10;99.90
1806;DHT22;901;48.142;11.516;2023-07-29T01:12:28;17.10;99.90
1806;DHT22;901;48.142;11.516;2023-07-29T01:15:07;17.10;99.90
1806;DHT22;901;48.142;11.516;2023-07-29T01:17:40;17.10;99.90
1806;DHT22;901;48.142;11.516;2023-07-29T01:20:13;17.00;99.90
1806;DHT22;901;48.142;11.516;2023-07-29T01:22:41;17.00;99.90
1806;DHT22;901;48.142;11.516;2023-07-29T01:25:10;16.90;99.90
1806;DHT22;901;48.142;11.516;2023-07-29T01:27:36;16.90;99.90
1806;DHT22;901;48.142;11.516;2023-07-29T01:30:05;16.90;99.90
1806;DHT22;901;48.142;11.516;2023-07-29T01:32:37;16.90;99.90
1806;DHT22;901;48.142;11.516;2023-07-29T01:35:14;16.90;99.90
1806;DHT22;901;48.142;11.516;2023-07-29T01:37:44;16.80;99.90
1806;DHT22;901;48.142;11.516;2023-07-29T01:40:15;16.80;99.90
1806;DHT22;901;48.142;11.516;2023-07-29T01:42:43;16.70;99.90
1806;DHT22;901;48.142;11.516;2023-07-29T01:45:11;16.70;99.90
1806;DHT22;901;48.142;11.516;2023-07-29T01:47:38;16.70;99.90
1806;DHT22;901;48.142;11.516;2023-07-29T01:50:08;16.70;99.90
1806;DHT22;901;48.142;11.516;2023-07-29T01:52:35;16.70;99.90
1806;DHT22;901;48.142;11.516;2023-07-29T01:55:02;16.70;99.90
1806;DHT22;901;48.142;11.516;2023-07-29T01:57:30;16.70;99.90
1806;DHT22;901;48.142;11.516;2023-07-29T01:59:57;16.70;99.90
1806;DHT22;901;48.142;11.516;2023-07-29T02:02:24;16.80;99.90
1806;DHT22;901;48.142;11.516;2023-07-29T02:04:50;16.70;99.90
1806;DHT22;901;48.142;11.516;2023-07-29T02:07:18;16.70;99.90
1806;DHT22;901;48.142;11.516;2023-07-29T02:09:45;16.80;99.90
1806;DHT22;901;48.142;11.516;2023-07-29T02:12:11;16.70;99.90
1806;DHT22;901;48.142;11.516;2023-07-29T02:14:40;16.70;99.90
1806;DHT22;901;48.142;11.516;2023-07-29T02:17:07;16.70;99.90
1806;DHT22;901;48.142;11.516;2023-07-29T02:19:34;16.60;99.90
1806;DHT22;901;48.142;11.516;2023-07-29T02:22:01;16.60;99.90
1806;DHT22;901;48.142;11.516;2023-07-29T02:24:28;16.60;99.90
1806;DHT22;901;48.142;11.516;2023-07-29T02:26:55;16.60;99.90
1806;DHT22;901;48.142;11.516;2023-07-29T02:29:22;16.50;99.90
1806;DHT22;901;48.142;11.516;2023-07-29T02:31:50;16.50;99.90
1806;DHT22;901;48.142;11.516;2023-07-29T02:34:17;16.50;99.90
1806;DHT22;901;48.142;11.516;2023-07-29T02:36:44;16.50;99.90
1806;DHT22;901;48.142;11.516;2023-07-29T02:39:11;16.50;99.90
1806;DHT22;901;48.142;11.516;2023-07-29T02:41:38;16.50;99.90
1806;DHT22;901;48.142;11.516;2023-07-29T02:44:05;16.40;99.90
1806;DHT22;901;48.142;11.516;2023-07-29T02:46:32;16.40;99.90
1806;DHT22;901;48.142;11.516;2023-07-29T02:49:02;16.40;99.90
1806;DHT22;901;48.142;11.516;2023-07-29T02:51:29;16.30;99.90
1806;DHT22;901;48.142;11.516;2023-07-29T02:53:56;16.30;99.90
1806;DHT22;901;48.142;11.516;2023-07-29T02:56:23;16.30;99.90
1806;DHT22;901;48.142;11.516;2023-07-29T02:58:50;16.30;99.90
1806;DHT22;901;48.142;11.516;2023-07-29T03:01:17;16.30;99.90
1806;DHT22;901;48.142;11.516;2023-07-29T03:03:44;16.30;99.90
1806;DHT22;901;48.142;11.516;2023-07-29T03:06:14;16.30;99.90
1806;DHT22;901;48.142;11.516;2023-07-29T03:08:41;16.30;99.90
1806;DHT22;901;48.142;11.516;2023-07-29T03:11:09;16.20;99.90
1806;DHT22;901;48.142;11.516;2023-07-29T03:13:37;16.30;99.90
1806;DHT22;901;48.142;11.516;2023-07-29T03:16:07;16.30;99.90
1806;DHT22;901;48.142;11.516;2023-07-29T03:18:34;16.30;99.90
1806;DHT22;901;48.142;11.516;2023-07-29T03:21:02;16.30;99.90
1806;DHT22;901;48.142;11.516;2023-07-29T03:23:31;16.30;99.90
1806;DHT22;901;48.142;11.516;2023-07-29T03:25:59;16.30;99.90
1806;DHT22;901;48.142;11.516;2023-07-29T03:28:27;16.40;99.90
1806;DHT22;901;48.142;11.516;2023-07-29T03:30:54;16.40;99.90
1806;DHT22;901;48.142;11.516;2023-07-29T03:33:21;16.40;99.90
1806;DHT22;901;48.142;11.516;2023-07-29T03:35:48;16.40;99.90
1806;DHT22;901;48.142;11.516;2023-07-29T03:38:15;16.40;99.90
1806;DHT22;901;48.142;11.516;2023-07-29T03:40:44;16.40;99.90
1806;DHT22;901;48.142;11.516;2023-07-29T03:43:11;16.50;99.90
1806;DHT22;901;48.142;11.516;2023-07-29T03:45:38;16.50;99.90
1806;DHT22;901;48.142;11.516;2023-07-29T03:48:06;16.60;99.90
1806;DHT22;901;48.142;11.516;2023-07-29T03:50:34;16.60;99.90
1806;DHT22;901;48.142;11.516;2023-07-29T03:53:01;16.60;99.90
1806;DHT22;901;48.142;11.516;2023-07-29T03:55:28;16.70;99.90
1806;DHT22;901;48.142;11.516;2023-07-29T03:57:58;16.70;99.90
1806;DHT22;901;48.142;11.516;2023-07-29T04:00:25;16.80;99.90
1806;DHT22;901;48.142;11.516;2023-07-29T04:02:52;16.90;99.90
1806;DHT22;901;48.142;11.516;2023-07-29T04:05:19;17.00;99.90
1806;DHT22;901;48.142;11.516;2023-07-29T04:07:46;17.20;99.90
1806;DHT22;901;48.142;11.516;2023-07-29T04:10:13;17.30;99.90
1806;DHT22;901;48.142;11.516;2023-07-29T04:12:40;17.40;99.90
1806;DHT22;901;48.142;11.516;2023-07-29T04:15:09;17.40;99.90
1806;DHT22;901;48.142;11.516;2023-07-29T04:17:36;17.40;99.90
1806;DHT22;901;48.142;11.516;2023-07-29T04:20:03;17.40;99.90
1806;DHT22;901;48.142;11.516;2023-07-29T04:22:30;17.30;99.90
1806;DHT22;901;48.142;11.516;2023-07-29T04:24:57;17.30;99.90
1806;DHT22;901;48.142;11.516;2023-07-29T04:27:24;17.30;99.90
1806;DHT22;901;48.142;11.516;2023-07-29T04:29:51;17.30;99.90
1806;DHT22;901;48.142;11.516;2023-07-29T04:32:19;17.30;99.90
1806;DHT22;901;48.142;11.516;2023-07-29T04:34:46;17.30;99.90
1806;DHT22;901;48.142;11.516;2023-07-29T04:37:13;17.30;99.90
1806;DHT22;901;48.142;11.516;2023-07-29T04:39:40;17.40;99.90
1806;DHT22;901;48.142;11.516;2023-07-29T04:42:07;17.40;99.90
1806;DHT22;901;48.142;11.516;2023-07-29T04:44:33;17.40;99.90
1806;DHT22;901;48.142;11.516;2023-07-29T04:47:01;17.60;99.90
1806;DHT22;901;48.142;11.516;2023-07-29T04:49:30;17.80;99.90
1806;DHT22;901;48.142;11.516;2023-07-29T04:51:56;18.40;99.90
1806;DHT22;901;48.142;11.516;2023-07-29T04:54:23;18.90;99.90
1806;DHT22;901;48.142;11.516;2023-07-29T04:56:50;19.50;99.90
1806;DHT22;901;48.142;11.516;2023-07-29T04:59:17;20.20;99.90
1806;DHT22;901;48.142;11.516;2023-07-29T05:01:44;21.00;99.90
1806;DHT22;901;48.142;11.516;2023-07-29T05:04:11;21.70;99.90
1806;DHT22;901;48.142;11.516;2023-07-29T05:06:39;22.40;99.90
1806;DHT22;901;48.142;11.516;2023-07-29T05:09:13;22.80;99.90
1806;DHT22;901;48.142;11.516;2023-07-29T05:11:41;23.20;99.90
1806;DHT22;901;48.142;11.516;2023-07-29T05:14:09;23.80;99.90
1806;DHT22;901;48.142;11.516;2023-07-29T05:16:36;24.00;99.90
1806;DHT22;901;48.142;11.516;2023-07-29T05:19:03;23.90;99.90
1806;DHT22;901;48.142;11.516;2023-07-29T05:21:30;24.20;99.90
1806;DHT22;901;48.142;11.516;2023-07-29T05:23:58;24.40;99.90
1806;DHT22;901;48.142;11.516;2023-07-29T05:26:25;24.40;99.90
1806;DHT22;901;48.142;11.516;2023-07-29T05:28:52;24.30;99.90
1806;DHT22;901;48.142;11.516;2023-07-29T05:31:18;24.10;99.90
1806;DHT22;901;48.142;11.516;2023-07-29T05:33:45;24.00;99.90
1806;DHT22;901;48.142;11.516;2023-07-29T05:36:12;23.90;99.90
1806;DHT22;901;48.142;11.516;2023-07-29T05:38:39;23.80;99.90
1806;DHT22;901;48.142;11.516;2023-07-29T05:41:07;23.70;99.90
1806;DHT22;901;48.142;11.516;2023-07-29T05:43:34;23.50;99.90
1806;DHT22;901;48.142;11.516;2023-07-29T05:46:01;23.10;99.90
1806;DHT22;901;48.142;11.516;2023-07-29T05:48:28;23.00;99.90
1806;DHT22;901;48.142;11.516;2023-07-29T05:50:55;22.70;99.90
1806;DHT22;901;48.142;11.516;2023-07-29T05:53:22;22.50;99.90
1806;DHT22;901;48.142;11.516;2023-07-29T05:55:49;22.30;99.90
1806;DHT22;901;48.142;11.516;2023-07-29T05:58:17;22.20;99.90
1806;DHT22;901;48.142;11.516;2023-07-29T06:00:44;22.10;99.90
1806;DHT22;901;48.142;11.516;2023-07-29T06:03:11;21.90;99.90
1806;DHT22;901;48.142;11.516;2023-07-29T06:05:38;21.70;99.90
1806;DHT22;901;48.142;11.516;2023-07-29T06:08:05;21.20;99.90
1806;DHT22;901;48.142;11.516;2023-07-29T06:10:34;20.60;99.90
1806;DHT22;901;48.142;11.516;2023-07-29T06:13:01;20.70;99.90
1806;DHT22;901;48.142;11.516;2023-07-29T06:15:29;20.70;99.90
1806;DHT22;901;48.142;11.516;2023-07-29T06:17:56;20.70;99.90
1806;DHT22;901;48.142;11.516;2023-07-29T06:20:23;20.70;99.90
1806;DHT22;901;48.142;11.516;2023-07-29T06:22:50;20.70;99.90
1806;DHT22;901;48.142;11.516;2023-07-29T06:25:17;20.60;99.90
1806;DHT22;901;48.142;11.516;2023-07-29T06:27:44;20.50;99.90
1806;DHT22;901;48.142;11.516;2023-07-29T06:30:11;20.50;99.90
1806;DHT22;901;48.142;11.516;2023-07-29T06:32:39;20.50;99.90
1806;DHT22;901;48.142;11.516;2023-07-29T06:35:06;20.70;99.90
1806;DHT22;901;48.142;11.516;2023-07-29T06:37:33;20.60;99.90
1806;DHT22;901;48.142;11.516;2023-07-29T06:40:00;20.80;99.90
1806;DHT22;901;48.142;11.516;2023-07-29T06:42:27;21.00;99.90
1806;DHT22;901;48.142;11.516;2023-07-29T06:44:54;21.20;99.90
1806;DHT22;901;48.142;11.516;2023-07-29T06:47:21;21.30;99.90
1806;DHT22;901;48.142;11.516;2023-07-29T06:49:49;21.30;99.90
1806;DHT22;901;48.142;11.516;2023-07-29T06:52:16;21.10;99.90
1806;DHT22;901;48.142;11.516;2023-07-29T06:54:43;20.90;99.90
1806;DHT22;901;48.142;11.516;2023-07-29T06:57:10;20.70;99.90
1806;DHT22;901;48.142;11.516;2023-07-29T06:59:37;20.50;99.90
1806;DHT22;901;48.142;11.516;2023-07-29T07:02:04;20.20;99.90
1806;DHT22;901;48.142;11.516;2023-07-29T07:04:31;20.00;99.90
1806;DHT22;901;48.142;11.516;2023-07-29T07:06:59;19.80;99.90
1806;DHT22;901;48.142;11.516;2023-07-29T07:09:26;19.70;99.90
1806;DHT22;901;48.142;11.516;2023-07-29T07:11:53;19.70;99.90
1806;DHT22;901;48.142;11.516;2023-07-29T07:14:20;19.70;99.90
1806;DHT22;901;48.142;11.516;2023-07-29T07:16:47;19.70;99.90
1806;DHT22;901;48.142;11.516;2023-07-29T07:19:14;19.80;99.90
1806;DHT22;901;48.142;11.516;2023-07-29T07:21:40;19.80;99.90
1806;DHT22;901;48.142;11.516;2023-07-29T07:24:09;19.80;99.90
1806;DHT22;901;48.142;11.516;2023-07-29T07:26:35;19.70;99.90
1806;DHT22;901;48.142;11.516;2023-07-29T07:29:02;19.80;99.90
1806;DHT22;901;48.142;11.516;2023-07-29T07:31:33;19.90;99.90
1806;DHT22;901;48.142;11.516;2023-07-29T07:34:00;20.00;99.90
1806;DHT22;901;48.142;11.516;2023-07-29T07:36:28;19.80;99.90
1806;DHT22;901;48.142;11.516;2023-07-29T07:38:55;19.90;99.90
1806;DHT22;901;48.142;11.516;2023-07-29T07:41:24;20.00;99.90
1806;DHT22;901;48.142;11.516;2023-07-29T07:43:50;20.10;99.90
1806;DHT22;901;48.142;11.516;2023-07-29T07:46:17;20.40;99.90
1806;DHT22;901;48.142;11.516;2023-07-29T07:48:44;20.70;99.90
1806;DHT22;901;48.142;11.516;2023-07-29T07:51:11;21.00;99.90
1806;DHT22;901;48.142;11.516;2023-07-29T07:53:38;21.30;99.90
1806;DHT22;901;48.142;11.516;2023-07-29T07:56:05;21.50;99.90
1806;DHT22;901;48.142;11.516;2023-07-29T07:58:34;21.70;99.90
1806;DHT22;901;48.142;11.516;2023-07-29T08:01:02;21.80;99.90
1806;DHT22;901;48.142;11.516;2023-07-29T08:03:29;21.70;99.90
1806;DHT22;901;48.142;11.516;2023-07-29T08:05:56;21.80;99.90
1806;DHT22;901;48.142;11.516;2023-07-29T08:08:23;21.90;99.90
1806;DHT22;901;48.142;11.516;2023-07-29T08:10:50;22.00;99.90
1806;DHT22;901;48.142;11.516;2023-07-29T08:13:17;22.10;99.90
1806;DHT22;901;48.142;11.516;2023-07-29T08:15:47;22.30;99.90
1806;DHT22;901;48.142;11.516;2023-07-29T08:18:14;22.40;99.90
1806;DHT22;901;48.142;11.516;2023-07-29T08:20:41;22.40;99.90
1806;DHT22;901;48.142;11.516;2023-07-29T08:23:08;22.50;99.90
1806;DHT22;901;48.142;11.516;2023-07-29T08:25:35;22.70;99.90
1806;DHT22;901;48.142;11.516;2023-07-29T08:28:02;22.90;99.90
1806;DHT22;901;48.142;11.516;2023-07-29T08:30:28;23.00;99.90
1806;DHT22;901;48.142;11.516;2023-07-29T08:32:57;23.30;99.90
1806;DHT22;901;48.142;11.516;2023-07-29T08:35:23;23.50;99.90
1806;DHT22;901;48.142;11.516;2023-07-29T08:37:50;23.40;99.90
1806;DHT22;901;48.142;11.516;2023-07-29T08:40:17;23.50;99.90
1806;DHT22;901;48.142;11.516;2023-07-29T08:42:47;23.50;99.90
1806;DHT22;901;48.142;11.516;2023-07-29T08:45:17;23.50;99.90
1806;DHT22;901;48.142;11.516;2023-07-29T08:47:44;23.70;99.90
1806;DHT22;901;48.142;11.516;2023-07-29T08:50:13;23.90;99.90
1806;DHT22;901;48.142;11.516;2023-07-29T08:52:41;23.90;99.90
1806;DHT22;901;48.142;11.516;2023-07-29T08:55:10;24.20;99.90
1806;DHT22;901;48.142;11.516;2023-07-29T08:57:36;24.30;99.90
1806;DHT22;901;48.142;11.516;2023-07-29T09:00:05;24.20;99.90
1806;DHT22;901;48.142;11.516;2023-07-29T09:02:33;24.30;99.90
1806;DHT22;901;48.142;11.516;2023-07-29T09:04:59;24.30;99.90
1806;DHT22;901;48.142;11.516;2023-07-29T09:07:29;24.30;99.90
1806;DHT22;901;48.142;11.516;2023-07-29T09:09:56;24.40;99.90
1806;DHT22;901;48.142;11.516;2023-07-29T09:12:23;24.40;99.90
1806;DHT22;901;48.142;11.516;2023-07-29T09:14:52;24.50;99.90
1806;DHT22;901;48.142;11.516;2023-07-29T09:17:20;24.50;99.90
1806;DHT22;901;48.142;11.516;2023-07-29T09:19:48;24.70;99.90
1806;DHT22;901;48.142;11.516;2023-07-29T09:22:18;24.80;99.90
1806;DHT22;901;48.142;11.516;2023-07-29T09:24:47;24.80;99.90
1806;DHT22;901;48.142;11.516;2023-07-29T09:27:23;24.70;99.90
1806;DHT22;901;48.142;11.516;2023-07-29T09:29:51;24.70;99.90
1806;DHT22;901;48.142;11.516;2023-07-29T09:32:19;24.80;99.90
1806;DHT22;901;48.142;11.516;2023-07-29T09:34:46;25.00;99.90
1806;DHT22;901;48.142;11.516;2023-07-29T09:37:16;25.30;99.90
1806;DHT22;901;48.142;11.516;2023-07-29T09:39:48;25.40;99.90
1806;DHT22;901;48.142;11.516;2023-07-29T09:42:19;25.80;99.90
1806;DHT22;901;48.142;11.516;2023-07-29T09:44:48;25.90;99.90
1806;DHT22;901;48.142;11.516;2023-07-29T09:47:22;26.20;99.90
1806;DHT22;901;48.142;11.516;2023-07-29T09:49:49;26.50;99.90
1806;DHT22;901;48.142;11.516;2023-07-29T09:52:16;26.80;99.90
1806;DHT22;901;48.142;11.516;2023-07-29T09:54:43;27.10;99.90
1806;DHT22;901;48.142;11.516;2023-07-29T09:57:13;27.30;99.90
1806;DHT22;901;48.142;11.516;2023-07-29T09:59:41;27.30;99.90
1806;DHT22;901;48.142;11.516;2023-07-29T10:02:13;27.40;99.90
1806;DHT22;901;48.142;11.516;2023-07-29T10:04:41;27.50;99.90
1806;DHT22;901;48.142;11.516;2023-07-29T10:07:09;27.50;99.90
1806;DHT22;901;48.142;11.516;2023-07-29T10:09:37;27.50;99.90
1806;DHT22;901;48.142;11.516;2023-07-29T10:12:06;27.50;99.90
1806;DHT22;901;48.142;11.516;2023-07-29T10:14:35;27.40;99.90
1806;DHT22;901;48.142;11.516;2023-07-29T10:17:04;27.40;99.90
1806;DHT22;901;48.142;11.516;2023-07-29T10:19:32;27.40;99.90
1806;DHT22;901;48.142;11.516;2023-07-29T10:21:59;27.30;99.90
1806;DHT22;901;48.142;11.516;2023-07-29T10:24:32;27.30;99.90
1806;DHT22;901;48.142;11.516;2023-07-29T10:27:01;27.30;99.90
1806;DHT22;901;48.142;11.516;2023-07-29T10:29:31;27.40;99.90
1806;DHT22;901;48.142;11.516;2023-07-29T10:32:01;27.50;99.90
1806;DHT22;901;48.142;11.516;2023-07-29T10:34:30;27.50;99.90
1806;DHT22;901;48.142;11.516;2023-07-29T10:36:57;27.50;99.90
1806;DHT22;901;48.142;11.516;2023-07-29T10:39:24;27.60;99.90
1806;DHT22;901;48.142;11.516;2023-07-29T10:41:55;27.80;99.90
1806;DHT22;901;48.142;11.516;2023-07-29T10:44:50;28.00;99.90
1806;DHT22;901;48.142;11.516;2023-07-29T10:47:21;28.30;99.90
1806;DHT22;901;48.142;11.516;2023-07-29T10:49:50;28.40;99.90
1806;DHT22;901;48.142;11.516;2023-07-29T10:52:37;28.40;99.90
1806;DHT22;901;48.142;11.516;2023-07-29T10:55:27;28.80;99.90
1806;DHT22;901;48.142;11.516;2023-07-29T10:58:05;29.10;99.90
1806;DHT22;901;48.142;11.516;2023-07-29T11:00:33;29.20;99.90
1806;DHT22;901;48.142;11.516;2023-07-29T11:03:03;28.90;99.90
1806;DHT22;901;48.142;11.516;2023-07-29T11:05:53;28.90;99.90
1806;DHT22;901;48.142;11.516;2023-07-29T11:08:22;29.00;99.90
1806;DHT22;901;48.142;11.516;2023-07-29T11:11:02;29.10;99.90
1806;DHT22;901;48.142;11.516;2023-07-29T11:13:31;29.10;99.90
1806;DHT22;901;48.142;11.516;2023-07-29T11:15:58;28.80;99.90
1806;DHT22;901;48.142;11.516;2023-07-29T11:18:29;28.10;99.90
1806;DHT22;901;48.142;11.516;2023-07-29T11:20:57;26.70;99.90
1806;DHT22;901;48.142;11.516;2023-07-29T11:23:28;26.00;99.90
1806;DHT22;901;48.142;11.516;2023-07-29T11:25:56;25.50;99.90
1806;DHT22;901;48.142;11.516;2023-07-29T11:28:24;24.90;99.90
1806;DHT22;901;48.142;11.516;2023-07-29T11:30:51;24.40;99.90
1806;DHT22;901;48.142;11.516;2023-07-29T11:33:19;23.90;99.90
1806;DHT22;901;48.142;11.516;2023-07-29T11:35:47;23.80;99.90
1806;DHT22;901;48.142;11.516;2023-07-29T11:38:15;23.70;99.90
1806;DHT22;901;48.142;11.516;2023-07-29T11:40:43;23.40;99.90
1806;DHT22;901;48.142;11.516;2023-07-29T11:43:17;23.30;99.90
1806;DHT22;901;48.142;11.516;2023-07-29T11:45:45;23.20;99.90
1806;DHT22;901;48.142;11.516;2023-07-29T11:48:12;23.10;99.90
1806;DHT22;901;48.142;11.516;2023-07-29T11:50:38;23.20;99.90
1806;DHT22;901;48.142;11.516;2023-07-29T11:53:07;23.30;99.90
1806;DHT22;901;48.142;11.516;2023-07-29T11:55:34;23.50;99.90
1806;DHT22;901;48.142;11.516;2023-07-29T11:58:01;23.70;99.90
1806;DHT22;901;48.142;11.516;2023-07-29T12:00:28;24.00;99.90
1806;DHT22;901;48.142;11.516;2023-07-29T12:02:56;24.30;99.90
1806;DHT22;901;48.142;11.516;2023-07-29T12:05:23;24.60;99.90
1806;DHT22;901;48.142;11.516;2023-07-29T12:07:51;24.80;99.90
1806;DHT22;901;48.142;11.516;2023-07-29T12:10:20;24.90;99.90
1806;DHT22;901;48.142;11.516;2023-07-29T12:12:48;25.10;99.90
1806;DHT22;901;48.142;11.516;2023-07-29T12:15:23;25.10;99.90
1806;DHT22;901;48.142;11.516;2023-07-29T12:17:53;25.30;99.90
1806;DHT22;901;48.142;11.516;2023-07-29T12:20:22;25.30;99.90
1806;DHT22;901;48.142;11.516;2023-07-29T12:22:53;25.30;99.90
1806;DHT22;901;48.142;11.516;2023-07-29T12:25:22;25.40;99.90
1806;DHT22;901;48.142;11.516;2023-07-29T12:27:49;25.40;99.90
1806;DHT22;901;48.142;11.516;2023-07-29T12:30:16;25.70;99.90
1806;DHT22;901;48.142;11.516;2023-07-29T12:32:44;25.80;99.90
1806;DHT22;901;48.142;11.516;2023-07-29T12:35:12;26.10;99.90
1806;DHT22;901;48.142;11.516;2023-07-29T12:37:39;26.20;99.90
1806;DHT22;901;48.142;11.516;2023-07-29T12:40:21;25.90;99.90
1806;DHT22;901;48.142;11.516;2023-07-29T12:42:49;25.50;99.90
1806;DHT22;901;48.142;11.516;2023-07-29T12:45:16;25.20;99.90
1806;DHT22;901;48.142;11.516;2023-07-29T12:47:43;25.00;99.90
1806;DHT22;901;48.142;11.516;2023-07-29T12:50:10;24.80;99.90
1806;DHT22;901;48.142;11.516;2023-07-29T12:52:37;24.30;99.90
1806;DHT22;901;48.142;11.516;2023-07-29T12:55:05;23.40;99.90
1806;DHT22;901;48.142;11.516;2023-07-29T12:57:35;22.20;99.90
1806;DHT22;901;48.142;11.516;2023-07-29T13:00:03;21.40;99.90
1806;DHT22;901;48.142;11.516;2023-07-29T13:02:30;21.00;99.90
1806;DHT22;901;48.142;11.516;2023-07-29T13:04:57;20.70;99.90
1806;DHT22;901;48.142;11.516;2023-07-29T13:07:24;20.60;99.90
1806;DHT22;901;48.142;11.516;2023-07-29T13:09:51;20.50;99.90
1806;DHT22;901;48.142;11.516;2023-07-29T13:12:17;20.50;99.90
1806;DHT22;901;48.142;11.516;2023-07-29T13:14:46;20.40;99.90
1806;DHT22;901;48.142;11.516;2023-07-29T13:17:13;20.40;99.90
1806;DHT22;901;48.142;11.516;2023-07-29T13:19:39;20.50;99.90
1806;DHT22;901;48.142;11.516;2023-07-29T13:22:06;20.60;99.90
1806;DHT22;901;48.142;11.516;2023-07-29T13:24:33;20.80;99.90
1806;DHT22;901;48.142;11.516;2023-07-29T13:27:00;20.90;99.90
1806;DHT22;901;48.142;11.516;2023-07-29T13:29:27;21.10;99.90
1806;DHT22;901;48.142;11.516;2023-07-29T13:31:55;21.20;99.90
1806;DHT22;901;48.142;11.516;2023-07-29T13:34:22;21.30;99.90
1806;DHT22;901;48.142;11.516;2023-07-29T13:36:49;21.30;99.90
1806;DHT22;901;48.142;11.516;2023-07-29T13:39:16;21.30;99.90
1806;DHT22;901;48.142;11.516;2023-07-29T13:41:43;21.30;99.90
1806;DHT22;901;48.142;11.516;2023-07-29T13:44:09;21.30;99.90
1806;DHT22;901;48.142;11.516;2023-07-29T13:46:37;21.40;99.90
1806;DHT22;901;48.142;11.516;2023-07-29T13:49:05;21.40;99.90
1806;DHT22;901;48.142;11.516;2023-07-29T13:51:32;21.40;99.90
1806;DHT22;901;48.142;11.516;2023-07-29T13:53:59;21.50;99.90
1806;DHT22;901;48.142;11.516;2023-07-29T13:56:26;21.60;99.90
1806;DHT22;901;48.142;11.516;2023-07-29T13:58:53;21.80;99.90
1806;DHT22;901;48.142;11.516;2023-07-29T14:01:20;22.00;99.90
1806;DHT22;901;48.142;11.516;2023-07-29T14:03:47;22.10;99.90
1806;DHT22;901;48.142;11.516;2023-07-29T14:06:15;22.10;99.90
1806;DHT22;901;48.142;11.516;2023-07-29T14:08:42;22.00;99.90
1806;DHT22;901;48.142;11.516;2023-07-29T14:11:09;22.00;99.90
1806;DHT22;901;48.142;11.516;2023-07-29T14:13:36;22.10;99.90
1806;DHT22;901;48.142;11.516;2023-07-29T14:16:03;22.10;99.90
1806;DHT22;901;48.142;11.516;2023-07-29T14:18:30;21.90;99.90
1806;DHT22;901;48.142;11.516;2023-07-29T14:20:57;21.90;99.90
1806;DHT22;901;48.142;11.516;2023-07-29T14:23:26;21.90;99.90
1806;DHT22;901;48.142;11.516;2023-07-29T14:25:53;21.90;99.90
1806;DHT22;901;48.142;11.516;2023-07-29T14:28:19;21.90;99.90
1806;DHT22;901;48.142;11.516;2023-07-29T14:30:46;22.00;99.90
1806;DHT22;901;48.142;11.516;2023-07-29T14:33:13;21.90;99.90
1806;DHT22;901;48.142;11.516;2023-07-29T14:35:40;21.90;99.90
1806;DHT22;901;48.142;11.516;2023-07-29T14:38:07;21.80;99.90
1806;DHT22;901;48.142;11.516;2023-07-29T14:40:35;21.70;99.90
1806;DHT22;901;48.142;11.516;2023-07-29T14:43:02;21.60;99.90
1806;DHT22;901;48.142;11.516;2023-07-29T14:45:29;21.50;99.90
1806;DHT22;901;48.142;11.516;2023-07-29T14:47:56;21.20;99.90
1806;DHT22;901;48.142;11.516;2023-07-29T14:50:22;21.00;99.90
1806;DHT22;901;48.142;11.516;2023-07-29T14:52:49;20.80;99.90
1806;DHT22;901;48.142;11.516;2023-07-29T14:55:16;20.70;99.90
1806;DHT22;901;48.142;11.516;2023-07-29T14:57:44;20.60;99.90
1806;DHT22;901;48.142;11.516;2023-07-29T15:00:12;20.50;99.90
1806;DHT22;901;48.142;11.516;2023-07-29T15:02:40;20.50;99.90
1806;DHT22;901;48.142;11.516;2023-07-29T15:05:07;20.50;99.90
1806;DHT22;901;48.142;11.516;2023-07-29T15:07:34;20.30;99.90
1806;DHT22;901;48.142;11.516;2023-07-29T15:10:01;20.30;99.90
1806;DHT22;901;48.142;11.516;2023-07-29T15:12:28;20.30;99.90
1806;DHT22;901;48.142;11.516;2023-07-29T15:14:56;20.30;99.90
1806;DHT22;901;48.142;11.516;2023-07-29T15:17:23;20.40;99.90
1806;DHT22;901;48.142;11.516;2023-07-29T15:19:50;20.40;99.90
1806;DHT22;901;48.142;11.516;2023-07-29T15:22:17;20.50;99.90
1806;DHT22;901;48.142;11.516;2023-07-29T15:24:44;20.60;99.90
1806;DHT22;901;48.142;11.516;2023-07-29T15:27:12;20.70;99.90
1806;DHT22;901;48.142;11.516;2023-07-29T15:29:39;20.80;99.90
1806;DHT22;901;48.142;11.516;2023-07-29T15:32:07;20.90;99.90
1806;DHT22;901;48.142;11.516;2023-07-29T15:34:34;21.00;99.90
1806;DHT22;901;48.142;11.516;2023-07-29T15:37:02;21.10;99.90
1806;DHT22;901;48.142;11.516;2023-07-29T15:39:29;21.20;99.90
1806;DHT22;901;48.142;11.516;2023-07-29T15:41:56;21.30;99.90
1806;DHT22;901;48.142;11.516;2023-07-29T15:44:23;21.20;99.90
1806;DHT22;901;48.142;11.516;2023-07-29T15:46:50;21.10;99.90
1806;DHT22;901;48.142;11.516;2023-07-29T15:49:19;21.10;99.90
1806;DHT22;901;48.142;11.516;2023-07-29T15:51:46;21.10;99.90
1806;DHT22;901;48.142;11.516;2023-07-29T15:54:13;21.10;99.90
1806;DHT22;901;48.142;11.516;2023-07-29T15:56:40;21.20;99.90
1806;DHT22;901;48.142;11.516;2023-07-29T15:59:07;21.40;99.90
1806;DHT22;901;48.142;11.516;2023-07-29T16:01:34;21.60;99.90
1806;DHT22;901;48.142;11.516;2023-07-29T16:04:01;21.90;99.90
1806;DHT22;901;48.142;11.516;2023-07-29T16:06:30;22.00;99.90